.
WxDataArchive / Data Records for 2006-09-25
2006-09-24 September 2006 2006-09-26

Data Records for Monday, 25 September 2006

Time	Temp	Chill	HIndex	Humid	Dewpt	 Wind 	HiWind	WindDir	Rain 	Barom 
-----	----	-----	------	-----	-----	------	------	-------	-----	----- 
00:00	44.6	44.6	44.6	92	42.4	0	0	---	0.00	29.940 
00:05	44.5	44.5	44.5	92	42.3	0	0	---	0.00	29.940 
00:10	44.3	44.3	44.3	92	42.1	0	0	---	0.00	29.940 
00:15	44.2	44.2	44.2	92	42.0	0	0	---	0.00	29.941 
00:20	44.1	44.1	44.1	92	41.9	0	0	---	0.00	29.941 
00:25	43.9	43.9	43.9	92	41.7	0	0	---	0.00	29.941 
00:30	43.8	43.8	43.8	92	41.6	0	0	---	0.00	29.942 
00:35	43.6	43.6	43.6	92	41.4	0	0	---	0.00	29.942 
00:40	43.5	43.5	43.5	92	41.3	0	0	---	0.00	29.942 
00:45	43.5	43.5	43.5	93	41.6	0	0	---	0.00	29.938 
00:50	43.5	43.5	43.5	93	41.6	0	0	---	0.00	29.938 
00:55	43.5	43.5	43.5	93	41.6	0	0	---	0.00	29.938 
01:00	43.6	43.6	43.6	94	42.0	0	0	---	0.00	29.939 
01:05	43.6	43.6	43.6	94	42.0	0	0	---	0.00	29.939 
01:10	43.5	43.5	43.5	94	41.9	0	0	---	0.00	29.939 
01:15	43.3	43.3	43.3	94	41.7	0	0	---	0.00	29.940 
01:20	43.3	43.3	43.3	94	41.7	0	0	---	0.00	29.940 
01:25	43.3	43.3	43.3	94	41.7	0	0	---	0.00	29.940 
01:30	43.2	43.2	43.2	94	41.6	0	0	---	0.00	29.941 
01:35	43.2	43.2	43.2	94	41.6	0	0	---	0.00	29.941 
01:40	43.2	43.2	43.2	94	41.6	0	0	---	0.00	29.941 
01:45	43.1	43.1	43.1	95	41.8	0	0	---	0.00	29.941 
01:50	43.1	43.1	43.1	95	41.8	0	0	---	0.00	29.941 
01:55	43.1	43.1	43.1	95	41.8	0	0	---	0.00	29.941 
02:00	42.9	42.9	42.9	95	41.6	0	0	---	0.00	29.939 
02:05	42.9	42.9	42.9	95	41.6	0	0	---	0.00	29.939 
02:10	42.9	42.9	42.9	95	41.6	0	0	---	0.00	29.939 
02:15	42.8	42.8	42.8	95	41.5	0	0	---	0.00	29.939 
02:20	42.8	42.8	42.8	95	41.5	0	0	---	0.00	29.939 
02:25	42.8	42.8	42.8	95	41.5	0	0	---	0.00	29.939 
02:30	42.6	42.6	42.6	95	41.3	0	0	---	0.00	29.939 
02:35	42.5	42.5	42.5	95	41.2	0	0	---	0.00	29.939 
02:40	42.5	42.5	42.5	95	41.2	0	0	---	0.00	29.939 
02:45	42.3	42.3	42.3	95	41.0	0	0	---	0.00	29.935 
02:50	42.3	42.3	42.3	95	41.0	0	0	---	0.00	29.935 
02:55	42.3	42.3	42.3	95	41.0	0	1	315	0.00	29.935 
03:00	42.3	42.3	42.3	95	41.0	0	0	---	0.00	29.936 
03:05	42.2	42.2	42.2	95	40.9	0	0	---	0.00	29.936 
03:10	42.2	42.2	42.2	95	40.9	0	0	---	0.00	29.936 
03:15	42.1	42.1	42.1	95	40.8	0	0	---	0.00	29.933 
03:20	41.9	41.9	41.9	95	40.6	0	0	---	0.00	29.933 
03:25	41.9	41.9	41.9	95	40.6	0	0	---	0.00	29.933 
03:30	41.9	41.9	41.9	96	40.8	0	0	---	0.00	29.933 
03:35	41.9	41.9	41.9	96	40.8	0	0	---	0.00	29.933 
03:40	41.9	41.9	41.9	96	40.8	0	0	---	0.00	29.933 
03:45	42.1	42.1	42.1	96	41.0	0	0	---	0.00	29.934 
03:50	42.2	42.2	42.2	96	41.1	0	0	---	0.00	29.934 
03:55	42.2	42.2	42.2	96	41.1	0	0	---	0.00	29.934 
04:00	42.2	42.2	42.2	96	41.1	0	0	---	0.00	29.934 
04:05	42.2	42.2	42.2	96	41.1	0	0	---	0.00	29.934 
04:10	42.2	42.2	42.2	96	41.1	0	0	---	0.00	29.934 
04:15	42.3	42.3	42.3	96	41.2	0	0	---	0.00	29.933 
04:20	42.2	42.2	42.2	96	41.1	0	0	---	0.00	29.933 
04:25	42.2	42.2	42.2	96	41.1	0	0	---	0.00	29.933 
04:30	42.1	42.1	42.1	96	41.0	0	0	---	0.00	29.932 
04:35	42.1	42.1	42.1	96	41.0	0	0	---	0.00	29.932 
04:40	42.1	42.1	42.1	96	41.0	0	0	---	0.00	29.932 
04:45	41.9	41.9	41.9	96	40.8	0	0	---	0.00	29.929 
04:50	41.9	41.9	41.9	96	40.8	0	0	---	0.00	29.929 
04:55	41.8	41.8	41.8	96	40.7	0	0	---	0.00	29.929 
05:00	41.6	41.6	41.6	96	40.5	0	0	---	0.00	29.929 
05:05	41.6	41.6	41.6	96	40.5	0	0	---	0.00	29.929 
05:10	41.6	41.6	41.6	96	40.5	0	0	---	0.00	29.929 
05:15	41.5	41.5	41.5	96	40.4	0	0	---	0.00	29.926 
05:20	41.5	41.5	41.5	96	40.4	0	0	---	0.00	29.926 
05:25	41.3	41.3	41.3	96	40.2	0	0	---	0.00	29.926 
05:30	41.2	41.2	41.2	96	40.1	0	0	---	0.00	29.928 
05:35	41.2	41.2	41.2	96	40.1	0	0	---	0.00	29.928 
05:40	41.2	41.2	41.2	96	40.1	0	0	---	0.00	29.928 
05:45	41.2	41.2	41.2	96	40.1	0	0	---	0.00	29.928 
05:50	41.2	41.2	41.2	96	40.1	0	0	---	0.00	29.928 
05:55	41.2	41.2	41.2	96	40.1	0	0	---	0.00	29.928 
06:00	41.2	41.2	41.2	96	40.1	0	0	---	0.00	29.931 
06:05	41.2	41.2	41.2	96	40.1	0	0	---	0.00	29.931 
06:10	41.1	41.1	41.1	96	40.0	0	0	---	0.00	29.931 
06:15	41.1	41.1	41.1	96	40.0	0	0	---	0.00	29.932 
06:20	41.1	41.1	41.1	96	40.0	0	0	---	0.00	29.932 
06:25	41.5	41.5	41.5	96	40.4	0	0	---	0.00	29.932 
06:30	41.8	41.8	41.8	97	41.0	0	0	---	0.00	29.933 
06:35	42.6	42.6	42.6	97	41.8	0	0	---	0.00	29.933 
06:40	43.3	43.3	43.3	97	42.5	0	1	315	0.00	29.933 
06:45	43.9	43.9	43.9	97	43.1	0	1	315	0.00	29.932 
06:50	44.5	44.5	44.5	97	43.7	0	1	315	0.00	29.932 
06:55	44.9	44.9	44.9	97	44.1	0	1	315	0.00	29.932 
07:00	45.4	45.4	45.4	98	44.9	0	1	315	0.00	29.931 
07:05	45.7	45.7	45.7	98	45.2	0	2	270	0.00	29.931 
07:10	46.0	46.0	46.0	98	45.5	0	1	270	0.00	29.931 
07:15	46.2	46.2	46.2	98	45.7	1	2	248	0.00	29.936 
07:20	46.5	46.5	46.5	98	46.0	0	1	248	0.00	29.936 
07:25	46.7	46.7	46.7	98	46.2	1	2	248	0.00	29.936 
07:30	46.7	46.7	46.7	98	46.2	0	2	248	0.00	29.939 
07:35	46.7	46.7	46.7	98	46.2	0	2	248	0.00	29.939 
07:40	46.7	46.7	46.7	98	46.2	0	2	248	0.00	29.939 
07:45	46.7	46.7	46.7	98	46.2	0	1	248	0.00	29.943 
07:50	46.7	46.7	46.7	98	46.2	0	1	248	0.00	29.943 
07:55	46.7	46.7	46.7	98	46.2	0	2	248	0.00	29.943 
08:00	46.7	46.7	46.7	98	46.2	1	3	248	0.00	29.944 
08:05	46.7	46.7	46.7	98	46.2	1	2	248	0.00	29.944 
08:10	46.7	46.7	46.7	98	46.2	1	2	248	0.00	29.944 
08:15	46.7	46.7	46.7	98	46.2	1	3	248	0.00	29.948 
08:20	46.7	46.7	46.7	98	46.2	0	1	248	0.00	29.948 
08:25	46.7	46.7	46.7	98	46.2	1	2	248	0.00	29.948 
08:30	46.8	46.8	46.8	98	46.3	1	2	248	0.00	29.948 
08:35	46.8	46.8	46.8	98	46.3	1	2	248	0.00	29.948 
08:40	47.0	47.0	47.0	98	46.5	1	3	248	0.00	29.948 
08:45	47.1	47.1	47.1	98	46.6	0	2	248	0.00	29.949 
08:50	47.1	47.1	47.1	98	46.6	0	2	248	0.00	29.949 
08:55	47.3	47.3	47.3	98	46.8	1	2	248	0.00	29.949 
09:00	47.3	47.3	47.3	98	46.8	1	3	248	0.00	29.952 
09:05	47.3	47.3	47.3	98	46.8	1	3	248	0.00	29.952 
09:10	47.4	47.4	47.4	98	46.9	1	3	248	0.00	29.952 
09:15	47.7	47.7	47.7	98	47.2	1	2	248	0.00	29.951 
09:20	48.2	48.2	48.2	98	47.7	0	2	248	0.00	29.951 
09:25	48.3	48.3	48.3	98	47.8	1	3	248	0.00	29.951 
09:30	48.3	48.3	48.3	98	47.8	1	3	248	0.00	29.954 
09:35	48.6	48.6	48.6	98	48.1	0	3	248	0.00	29.954 
09:40	48.8	48.8	48.8	98	48.3	1	2	248	0.00	29.954 
09:45	48.8	48.8	48.8	98	48.3	2	4	248	0.00	29.955 
09:50	49.2	49.2	49.2	98	48.7	1	3	248	0.00	29.955 
09:55	49.8	49.8	49.8	98	49.3	2	4	248	0.00	29.955 
10:00	50.1	50.1	50.1	98	49.6	1	4	248	0.00	29.952 
10:05	50.7	50.7	50.7	98	50.2	2	6	248	0.00	29.952 
10:10	51.4	51.4	51.4	98	50.9	2	3	248	0.00	29.952 
10:15	52.0	52.0	52.0	96	50.9	1	4	248	0.00	29.953 
10:20	52.8	52.8	52.8	92	50.5	2	3	248	0.00	29.953 
10:25	53.3	53.3	53.3	86	49.2	2	7	248	0.00	29.953 
10:30	54.1	54.1	54.1	84	49.4	1	3	248	0.00	29.950 
10:35	54.8	54.8	54.8	81	49.1	2	5	248	0.00	29.950 
10:40	55.4	55.4	55.4	79	49.0	2	4	248	0.00	29.950 
10:45	56.0	56.0	56.0	78	49.2	1	3	248	0.00	29.948 
10:50	56.5	56.5	56.5	76	49.0	2	6	248	0.00	29.948 
10:55	57.0	57.0	57.0	76	49.5	1	3	248	0.00	29.948 
11:00	57.8	57.8	57.8	77	50.6	1	2	248	0.00	29.946 
11:05	58.4	58.4	58.4	74	50.1	2	3	248	0.00	29.946 
11:10	58.7	58.7	58.7	72	49.7	2	4	248	0.00	29.946 
11:15	58.9	58.9	58.9	68	48.4	2	6	248	0.00	29.945 
11:20	59.2	59.2	59.2	70	49.4	2	4	270	0.00	29.945 
11:25	59.6	59.6	59.6	69	49.4	2	5	270	0.00	29.945 
11:30	59.8	59.8	59.8	71	50.4	2	4	270	0.00	29.944 
11:35	60.2	60.2	60.2	66	48.8	2	5	248	0.00	29.944 
11:40	60.4	60.4	60.4	66	49.0	2	4	248	0.00	29.944 
11:45	60.9	60.9	60.9	65	49.1	2	5	248	0.00	29.942 
11:50	61.5	61.5	61.5	67	50.4	1	5	248	0.00	29.942 
11:55	62.1	62.1	62.1	64	49.8	2	4	248	0.00	29.942 
12:00	62.6	62.6	62.6	63	49.8	2	4	248	0.00	29.935 
12:05	62.7	62.7	62.7	61	49.1	3	5	270	0.00	29.935 
12:10	62.9	62.9	62.9	60	48.8	2	6	248	0.00	29.935 
12:15	63.1	63.1	63.1	63	50.3	2	5	248	0.00	29.930 
12:20	63.5	63.5	63.5	61	49.8	2	3	248	0.00	29.930 
12:25	63.9	63.9	63.9	58	48.8	2	5	248	0.00	29.930 
12:30	64.3	64.3	64.3	60	50.1	2	5	248	0.00	29.921 
12:35	64.7	64.7	64.7	55	48.2	2	5	270	0.00	29.921 
12:40	64.8	64.8	64.8	57	49.2	2	4	248	0.00	29.921 
12:45	64.8	64.8	64.8	56	48.7	3	5	270	0.00	29.913 
12:50	65.0	65.0	65.0	55	48.4	2	5	248	0.00	29.913 
12:55	65.2	65.2	65.2	54	48.1	3	6	248	0.00	29.913 
13:00	65.6	65.6	65.6	54	48.5	2	4	270	0.00	29.906 
13:05	65.8	65.8	65.8	54	48.7	3	7	270	0.00	29.906 
13:10	66.0	66.0	66.0	50	46.8	3	9	270	0.00	29.906 
13:15	66.1	66.1	66.1	54	49.0	2	5	270	0.00	29.901 
13:20	66.3	66.3	66.3	50	47.1	3	7	270	0.00	29.901 
13:25	66.4	66.4	66.4	48	46.1	3	6	248	0.00	29.901 
13:30	66.9	66.9	66.9	52	48.7	3	5	248	0.00	29.896 
13:35	67.6	67.6	67.6	53	49.9	2	3	270	0.00	29.896 
13:40	67.6	67.6	67.6	50	48.3	2	5	270	0.00	29.896 
13:45	67.4	67.4	67.4	47	46.5	3	7	292	0.00	29.895 
13:50	66.9	66.9	66.9	47	46.0	4	10	270	0.00	29.895 
13:55	67.3	67.3	67.3	47	46.4	3	6	270	0.00	29.895 
14:00	66.9	66.9	66.9	44	44.3	4	10	270	0.00	29.892 
14:05	66.3	66.3	66.3	45	44.3	3	7	270	0.00	29.892 
14:10	66.0	66.0	66.0	47	45.2	3	8	270	0.00	29.892 
14:15	66.9	66.9	66.9	46	45.4	3	6	270	0.00	29.887 
14:20	67.8	67.8	67.8	44	45.1	4	7	270	0.00	29.887 
14:25	67.9	67.9	67.9	45	45.8	4	9	270	0.00	29.887 
14:30	67.1	67.1	67.1	43	43.8	3	6	270	0.00	29.883 
14:35	66.8	66.8	66.8	43	43.6	3	6	270	0.00	29.883 
14:40	66.4	66.4	66.4	45	44.4	3	7	270	0.00	29.883 
14:45	67.1	67.1	67.1	44	44.5	3	6	270	0.00	29.880 
14:50	67.9	67.9	67.9	44	45.2	2	6	270	0.00	29.880 
14:55	67.3	67.3	67.3	43	44.0	4	9	248	0.00	29.880 
15:00	66.3	66.3	66.3	44	43.7	3	7	270	0.00	29.880 
15:05	66.8	66.8	66.8	45	44.8	2	5	270	0.00	29.880 
15:10	67.9	67.9	67.9	43	44.6	3	6	248	0.00	29.880 
15:15	67.4	67.4	67.4	43	44.1	3	6	270	0.00	29.879 
15:20	67.6	67.6	67.6	45	45.5	3	5	270	0.00	29.879 
15:25	67.9	67.9	67.9	46	46.3	3	7	270	0.00	29.879 
15:30	68.6	68.6	68.6	41	44.0	3	6	270	0.00	29.873 
15:35	69.1	69.1	69.1	42	45.0	3	6	248	0.00	29.873 
15:40	69.3	69.3	69.3	42	45.2	4	11	270	0.00	29.873 
15:45	69.3	69.3	69.3	43	45.8	3	12	270	0.00	29.871 
15:50	69.6	69.6	69.6	42	45.5	3	7	248	0.00	29.871 
15:55	69.8	69.8	69.8	42	45.7	3	7	270	0.00	29.871 
16:00	69.8	69.8	69.8	41	45.0	4	7	248	0.00	29.872 
16:05	69.8	69.8	69.8	41	45.0	3	6	270	0.00	29.872 
16:10	69.9	69.9	69.9	39	43.8	3	7	270	0.00	29.872 
16:15	69.9	69.9	69.9	40	44.5	3	7	270	0.00	29.870 
16:20	69.6	69.6	69.6	39	43.5	4	8	270	0.00	29.870 
16:25	68.3	68.3	68.3	40	43.0	3	6	270	0.00	29.870 
16:30	67.6	67.6	67.6	40	42.4	3	6	270	0.00	29.873 
16:35	67.6	67.6	67.6	42	43.7	2	5	270	0.00	29.873 
16:40	68.3	68.3	68.3	42	44.3	3	7	270	0.00	29.873 
16:45	68.6	68.6	68.6	40	43.3	3	9	270	0.00	29.871 
16:50	68.8	68.8	68.8	41	44.1	3	6	270	0.00	29.871 
16:55	68.9	68.9	68.9	40	43.6	2	4	270	0.00	29.871 
17:00	68.9	68.9	68.9	41	44.2	3	6	270	0.00	29.873 
17:05	68.6	68.6	68.6	41	44.0	3	5	270	0.00	29.873 
17:10	68.4	68.4	68.4	41	43.8	3	6	248	0.00	29.873 
17:15	68.4	68.4	68.4	39	42.5	3	6	270	0.00	29.877 
17:20	68.6	68.6	68.6	41	44.0	3	7	270	0.00	29.877 
17:25	68.9	68.9	68.9	40	43.6	3	5	270	0.00	29.877 
17:30	68.9	68.9	68.9	40	43.6	3	7	270	0.00	29.876 
17:35	68.8	68.8	68.8	40	43.5	3	5	248	0.00	29.876 
17:40	68.3	68.3	68.3	41	43.7	2	4	248	0.00	29.876 
17:45	68.1	68.1	68.1	40	42.9	2	4	270	0.00	29.878 
17:50	67.9	67.9	67.9	40	42.7	3	6	270	0.00	29.878 
17:55	67.9	67.9	67.9	43	44.6	2	4	292	0.00	29.878 
18:00	67.8	67.8	67.8	40	42.6	2	5	292	0.00	29.880 
18:05	67.8	67.8	67.8	41	43.2	3	5	292	0.00	29.880 
18:10	67.6	67.6	67.6	40	42.4	2	4	270	0.00	29.880 
18:15	67.6	67.6	67.6	42	43.7	1	4	292	0.00	29.878 
18:20	67.4	67.4	67.4	43	44.1	1	5	315	0.00	29.878 
18:25	67.3	67.3	67.3	41	42.8	2	4	248	0.00	29.878 
18:30	67.3	67.3	67.3	42	43.4	2	5	270	0.00	29.879 
18:35	67.1	67.1	67.1	43	43.8	2	5	270	0.00	29.879 
18:40	66.8	66.8	66.8	43	43.6	1	2	248	0.00	29.879 
18:45	66.6	66.6	66.6	43	43.4	1	3	292	0.00	29.883 
18:50	66.4	66.4	66.4	44	43.8	1	4	270	0.00	29.883 
18:55	66.3	66.3	66.3	44	43.7	1	2	270	0.00	29.883 
19:00	65.8	65.8	65.8	45	43.9	0	2	270	0.00	29.889 
19:05	65.8	65.8	65.8	45	43.9	1	3	248	0.00	29.889 
19:10	65.5	65.5	65.5	47	44.7	0	1	248	0.00	29.889 
19:15	65.0	65.0	65.0	47	44.3	0	1	248	0.00	29.888 
19:20	64.5	64.5	64.5	48	44.4	0	2	248	0.00	29.888 
19:25	64.2	64.2	64.2	49	44.6	0	1	248	0.00	29.888 
19:30	63.7	63.7	63.7	50	44.7	0	1	248	0.00	29.893 
19:35	63.4	63.4	63.4	52	45.5	0	1	248	0.00	29.893 
19:40	62.9	62.9	62.9	53	45.5	0	0	---	0.00	29.893 
19:45	62.4	62.4	62.4	54	45.5	0	0	---	0.00	29.899 
19:50	61.8	61.8	61.8	55	45.5	0	0	---	0.00	29.899 
19:55	61.2	61.2	61.2	57	45.8	0	0	---	0.00	29.899 
20:00	60.4	60.4	60.4	58	45.6	0	0	---	0.00	29.902 
20:05	59.8	59.8	59.8	59	45.4	0	0	---	0.00	29.902 
20:10	59.3	59.3	59.3	61	45.8	0	0	---	0.00	29.902 
20:15	59.0	59.0	59.0	62	46.0	0	0	---	0.00	29.909 
20:20	58.6	58.6	58.6	62	45.6	0	0	---	0.00	29.909 
20:25	58.3	58.3	58.3	64	46.2	0	0	---	0.00	29.909 
20:30	58.0	58.0	58.0	63	45.5	0	0	---	0.00	29.916 
20:35	57.8	57.8	57.8	64	45.7	0	0	---	0.00	29.916 
20:40	57.6	57.6	57.6	64	45.5	0	0	---	0.00	29.916 
20:45	57.5	57.5	57.5	66	46.2	0	0	---	0.00	29.918 
20:50	57.2	57.2	57.2	65	45.5	0	0	---	0.00	29.918 
20:55	57.0	57.0	57.0	65	45.4	0	0	---	0.00	29.918 
21:00	56.9	56.9	56.9	66	45.7	0	0	---	0.00	29.926 
21:05	56.6	56.6	56.6	67	45.8	0	0	---	0.00	29.926 
21:10	56.5	56.5	56.5	68	46.1	0	0	---	0.00	29.926 
21:15	56.3	56.3	56.3	68	45.9	0	0	---	0.00	29.928 
21:20	56.0	56.0	56.0	70	46.4	0	0	---	0.00	29.928 
21:25	55.9	55.9	55.9	69	45.9	0	0	---	0.00	29.928 
21:30	55.7	55.7	55.7	70	46.1	0	0	---	0.00	29.931 
21:35	55.6	55.6	55.6	71	46.3	0	0	---	0.00	29.931 
21:40	55.4	55.4	55.4	71	46.2	0	0	---	0.00	29.931 
21:45	55.3	55.3	55.3	71	46.1	0	0	---	0.00	29.935 
21:50	55.3	55.3	55.3	72	46.4	0	0	---	0.00	29.935 
21:55	55.3	55.3	55.3	73	46.8	0	0	---	0.00	29.935 
22:00	55.3	55.3	55.3	73	46.8	0	0	---	0.00	29.936 
22:05	55.3	55.3	55.3	71	46.1	0	1	248	0.00	29.936 
22:10	55.3	55.3	55.3	72	46.4	0	0	---	0.00	29.936 
22:15	55.3	55.3	55.3	73	46.8	0	0	---	0.00	29.929 
22:20	55.1	55.1	55.1	73	46.6	0	0	---	0.00	29.929 
22:25	55.0	55.0	55.0	72	46.1	0	0	---	0.00	29.929 
22:30	54.7	54.7	54.7	73	46.2	0	0	---	0.00	29.927 
22:35	54.5	54.5	54.5	75	46.7	0	0	---	0.00	29.927 
22:40	54.2	54.2	54.2	75	46.4	0	0	---	0.00	29.927 
22:45	53.9	53.9	53.9	76	46.5	0	0	---	0.00	29.930 
22:50	53.6	53.6	53.6	76	46.2	0	0	---	0.00	29.930 
22:55	53.5	53.5	53.5	77	46.5	0	0	---	0.00	29.930 
23:00	53.3	53.3	53.3	77	46.3	0	0	---	0.00	29.927 
23:05	53.3	53.3	53.3	78	46.6	0	0	---	0.00	29.927 
23:10	53.3	53.3	53.3	78	46.6	0	0	---	0.00	29.927 
23:15	53.3	53.3	53.3	77	46.3	0	0	---	0.00	29.925 
23:20	53.3	53.3	53.3	78	46.6	0	0	---	0.00	29.925 
23:25	53.3	53.3	53.3	77	46.3	0	0	---	0.00	29.925 
23:30	53.5	53.5	53.5	78	46.8	0	0	---	0.00	29.925 
23:35	53.6	53.6	53.6	77	46.6	0	0	---	0.00	29.925 
23:40	53.9	53.9	53.9	76	46.5	0	1	248	0.00	29.925 
23:45	54.1	54.1	54.1	76	46.7	0	0	---	0.00	29.925 
23:50	54.1	54.1	54.1	76	46.7	0	0	---	0.00	29.925 
23:55	54.1	54.1	54.1	75	46.4	0	1	248	0.00	29.925 

CoCoRaHS
IN-AL-39
A2 Web Hosting
Creative Commons License
GoDaddy
Look for:

loaded 2017-10-17 18:26:07 • last modified 2010-11-18 10:43:29
Privacy PolicyDisclaimer
• wx.awcolley.com is powered by PmWiki v.2002016 •
• all content (unless otherwise noted) © 2017 A W Colley